Time;durP1;ratioP1;P1;durP2;ratioP2;P2;SDS_P1;SDS_P2;PMS_P1;PMS_P2;Temp;Humidity;BMP_temperature;BMP_pressure;BME280_temperature;BME280_humidity;BME280_pressure;Samples;Min_cycle;Max_cycle;Signal;HPM_P1;HPM_P2
2023/08/02 00:00:29;;;;;;;7.00;1.75;;;;;;;;;;5019830;28;20056;-68
2023/08/02 00:02:55;;;;;;;4.75;1.70;;;;;;;;;;5013640;28;20030;-70
2023/08/02 00:05:20;;;;;;;6.80;1.77;;;;;;;;;;5016727;28;20041;-70
2023/08/02 00:07:45;;;;;;;4.13;1.90;;;;;;;;;;5013662;28;20034;-70
2023/08/02 00:10:11;;;;;;;8.82;1.80;;;;;;;;;;5015912;28;20363;-68
2023/08/02 00:12:36;;;;;;;10.10;1.70;;;;;;;;;;5013409;28;20508;-70
2023/08/02 00:15:02;;;;;;;5.47;1.70;;;;;;;;;;5015545;28;20025;-70
2023/08/02 00:17:27;;;;;;;11.93;1.67;;;;;;;;;;5013614;28;20068;-68
2023/08/02 00:19:52;;;;;;;7.22;2.17;;;;;;;;;;5017156;28;20493;-68
2023/08/02 00:22:18;;;;;;;5.80;2.10;;;;;;;;;;5018644;28;20454;-68
2023/08/02 00:24:43;;;;;;;12.23;1.90;;;;;;;;;;5014040;28;20044;-68
2023/08/02 00:27:08;;;;;;;7.10;1.85;;;;;;;;;;5021846;28;20044;-68
2023/08/02 00:29:33;;;;;;;7.20;1.38;;;;;;;;;;5014431;28;20385;-67
2023/08/02 00:31:59;;;;;;;8.40;1.73;;;;;;;;;;5021560;28;20466;-68
2023/08/02 00:34:24;;;;;;;6.43;1.80;;;;;;;;;;5013218;28;20452;-70
2023/08/02 00:36:49;;;;;;;4.63;1.50;;;;;;;;;;5020160;28;20095;-68
2023/08/02 00:39:15;;;;;;;5.65;1.55;;;;;;;;;;5013512;28;20117;-68
2023/08/02 00:41:40;;;;;;;7.22;1.70;;;;;;;;;;5014288;28;20092;-68
2023/08/02 00:44:05;;;;;;;5.72;1.77;;;;;;;;;;5017232;28;20527;-68
2023/08/02 00:46:31;;;;;;;5.50;1.50;;;;;;;;;;5018090;28;20030;-68
2023/08/02 00:48:56;;;;;;;2.95;1.25;;;;;;;;;;5011928;28;20441;-68
2023/08/02 00:51:21;;;;;;;6.07;1.45;;;;;;;;;;5013891;28;20124;-68
2023/08/02 00:53:47;;;;;;;9.02;1.70;;;;;;;;;;5013317;28;20058;-68
2023/08/02 00:56:14;;;;;;;5.72;1.30;;;;;;;;;;5014549;28;20524;-68
2023/08/02 00:58:40;;;;;;;8.70;1.40;;;;;;;;;;5013003;28;20036;-67
2023/08/02 01:01:08;;;;;;;4.90;1.42;;;;;;;;;;5024785;28;20053;-68
2023/08/02 01:03:39;;;;;;;4.93;1.13;;;;;;;;;;5012916;28;20153;-68
2023/08/02 01:06:32;;;;;;;5.25;1.25;;;;;;;;;;5016873;28;20120;-68
2023/08/02 01:09:04;;;;;;;4.05;1.50;;;;;;;;;;5002125;28;20128;-69
2023/08/02 01:11:46;;;;;;;2.75;1.02;;;;;;;;;;5019782;28;20502;-68
2023/08/02 01:14:15;;;;;;;2.20;1.05;;;;;;;;;;5018168;28;20045;-69
2023/08/02 01:16:41;;;;;;;4.78;1.05;;;;;;;;;;5014843;28;20046;-68
2023/08/02 01:19:11;;;;;;;6.18;1.20;;;;;;;;;;5015346;28;20041;-68
2023/08/02 01:21:37;;;;;;;4.50;1.05;;;;;;;;;;5019581;28;20511;-68
2023/08/02 01:24:03;;;;;;;3.22;1.00;;;;;;;;;;5012919;28;20038;-68
2023/08/02 01:26:30;;;;;;;3.03;1.17;;;;;;;;;;5020262;28;20056;-68
2023/08/02 01:29:00;;;;;;;4.82;1.13;;;;;;;;;;5014965;28;20515;-68
2023/08/02 01:31:26;;;;;;;4.20;1.08;;;;;;;;;;5016560;28;20056;-68
2023/08/02 01:33:53;;;;;;;1.67;0.90;;;;;;;;;;5030400;28;20045;-68
2023/08/02 01:36:19;;;;;;;3.47;1.10;;;;;;;;;;5000342;28;20068;-68
2023/08/02 01:38:44;;;;;;;2.63;1.00;;;;;;;;;;5014887;28;20033;-68
2023/08/02 01:41:09;;;;;;;2.97;0.98;;;;;;;;;;5016386;28;20038;-68
2023/08/02 01:43:35;;;;;;;4.28;1.00;;;;;;;;;;5022591;28;20037;-68
2023/08/02 01:46:00;;;;;;;1.92;0.80;;;;;;;;;;5021228;28;20030;-68
2023/08/02 01:48:26;;;;;;;1.65;0.80;;;;;;;;;;5020466;28;20045;-68
2023/08/02 01:50:52;;;;;;;1.40;0.70;;;;;;;;;;5022975;28;20042;-68
2023/08/02 01:53:17;;;;;;;2.22;0.70;;;;;;;;;;5016191;28;20101;-68
2023/08/02 01:55:43;;;;;;;5.68;0.70;;;;;;;;;;5017043;28;20045;-68
2023/08/02 01:58:08;;;;;;;2.17;0.90;;;;;;;;;;5014651;28;20084;-68
2023/08/02 02:00:33;;;;;;;3.83;0.90;;;;;;;;;;5019698;28;20030;-68
2023/08/02 02:02:59;;;;;;;2.53;0.85;;;;;;;;;;5019471;28;20045;-69
2023/08/02 02:05:24;;;;;;;1.60;0.90;;;;;;;;;;5021145;28;20068;-68
2023/08/02 02:07:49;;;;;;;5.03;0.88;;;;;;;;;;5015748;28;20386;-69
2023/08/02 02:10:15;;;;;;;1.85;0.80;;;;;;;;;;5019568;28;20045;-69
2023/08/02 02:12:40;;;;;;;1.98;0.57;;;;;;;;;;5015704;28;20040;-68
2023/08/02 02:15:06;;;;;;;2.47;0.90;;;;;;;;;;5017530;28;20045;-68
2023/08/02 02:17:31;;;;;;;1.73;0.82;;;;;;;;;;5014150;28;20036;-68
2023/08/02 02:19:57;;;;;;;1.30;0.80;;;;;;;;;;5015906;28;20045;-69
2023/08/02 02:22:22;;;;;;;1.83;0.70;;;;;;;;;;5015564;28;20036;-68
2023/08/02 02:24:47;;;;;;;2.75;0.65;;;;;;;;;;5018455;28;20030;-68
2023/08/02 02:27:13;;;;;;;2.75;0.73;;;;;;;;;;5017245;28;20045;-68
2023/08/02 02:29:38;;;;;;;1.63;0.63;;;;;;;;;;5016483;28;20030;-68
2023/08/02 02:32:04;;;;;;;2.42;0.70;;;;;;;;;;5021707;28;20042;-68
2023/08/02 02:34:29;;;;;;;0.80;0.57;;;;;;;;;;5011742;28;20524;-70
2023/08/02 02:36:54;;;;;;;1.77;0.65;;;;;;;;;;5018014;28;20034;-68
2023/08/02 02:39:20;;;;;;;0.85;0.50;;;;;;;;;;5016406;28;20034;-68
2023/08/02 02:41:45;;;;;;;2.55;0.70;;;;;;;;;;5015730;28;20040;-68
2023/08/02 02:44:10;;;;;;;1.40;0.70;;;;;;;;;;5016253;28;20038;-69
2023/08/02 02:46:36;;;;;;;1.85;0.82;;;;;;;;;;5022670;28;20038;-68
2023/08/02 02:49:01;;;;;;;1.25;0.60;;;;;;;;;;5014822;28;20049;-68
2023/08/02 02:51:26;;;;;;;1.85;0.70;;;;;;;;;;5019026;28;20061;-68
2023/08/02 02:53:52;;;;;;;1.88;0.70;;;;;;;;;;5014709;28;20461;-68
2023/08/02 02:56:17;;;;;;;2.25;0.80;;;;;;;;;;5017212;28;20041;-68
2023/08/02 02:58:42;;;;;;;1.65;0.80;;;;;;;;;;5020459;28;20038;-68
2023/08/02 03:01:08;;;;;;;1.65;0.85;;;;;;;;;;5024550;28;20071;-68
2023/08/02 03:03:34;;;;;;;1.55;0.70;;;;;;;;;;5014348;28;20437;-68
2023/08/02 03:05:59;;;;;;;1.90;0.80;;;;;;;;;;5019991;28;20056;-68
2023/08/02 03:08:25;;;;;;;1.50;0.80;;;;;;;;;;5013118;28;20030;-68
2023/08/02 03:10:50;;;;;;;1.52;0.80;;;;;;;;;;5017672;28;20045;-69
2023/08/02 03:13:15;;;;;;;1.50;0.80;;;;;;;;;;5015545;28;20032;-68
2023/08/02 03:15:41;;;;;;;1.60;0.88;;;;;;;;;;5015113;28;20038;-68
2023/08/02 03:18:06;;;;;;;1.33;0.80;;;;;;;;;;5014003;28;20041;-68
2023/08/02 03:20:31;;;;;;;1.70;0.80;;;;;;;;;;5022181;28;20034;-68
2023/08/02 03:22:57;;;;;;;1.35;0.80;;;;;;;;;;5014294;28;20111;-69
2023/08/02 03:25:22;;;;;;;1.55;0.90;;;;;;;;;;5020552;28;20033;-68
2023/08/02 03:27:47;;;;;;;3.30;0.95;;;;;;;;;;5014229;28;20043;-68
2023/08/02 03:30:13;;;;;;;4.13;0.98;;;;;;;;;;5018694;28;20105;-68
2023/08/02 03:32:38;;;;;;;3.03;1.00;;;;;;;;;;5014023;28;20124;-68
2023/08/02 03:35:04;;;;;;;3.65;1.00;;;;;;;;;;5015860;28;20026;-68
2023/08/02 03:37:29;;;;;;;1.65;0.70;;;;;;;;;;5013639;28;20045;-68
2023/08/02 03:39:54;;;;;;;4.45;1.05;;;;;;;;;;5014783;28;20034;-68
2023/08/02 03:42:20;;;;;;;3.28;0.98;;;;;;;;;;5013032;28;20485;-69
2023/08/02 03:44:45;;;;;;;3.55;0.80;;;;;;;;;;5019735;28;20033;-69
2023/08/02 03:47:10;;;;;;;6.57;0.82;;;;;;;;;;5018984;28;20505;-68
2023/08/02 03:49:36;;;;;;;2.47;0.68;;;;;;;;;;5014834;28;20471;-69
2023/08/02 03:52:02;;;;;;;3.53;0.40;;;;;;;;;;5017830;28;20048;-68
2023/08/02 03:54:27;;;;;;;3.85;0.43;;;;;;;;;;5013769;28;20494;-68
2023/08/02 03:56:53;;;;;;;0.65;0.25;;;;;;;;;;5014896;28;20042;-69
2023/08/02 03:59:18;;;;;;;1.08;0.30;;;;;;;;;;5013893;28;20041;-68
2023/08/02 04:01:44;;;;;;;1.27;0.43;;;;;;;;;;5020820;28;20077;-68
2023/08/02 04:04:09;;;;;;;0.65;0.32;;;;;;;;;;5013500;28;20064;-68
2023/08/02 04:06:34;;;;;;;2.67;0.45;;;;;;;;;;5018767;28;20042;-68
2023/08/02 04:09:00;;;;;;;2.63;0.30;;;;;;;;;;5013190;28;20049;-68
2023/08/02 04:11:25;;;;;;;1.30;0.35;;;;;;;;;;5017891;28;20065;-68
2023/08/02 04:13:50;;;;;;;3.88;0.50;;;;;;;;;;5013176;28;20393;-69
2023/08/02 04:16:16;;;;;;;3.88;0.63;;;;;;;;;;5017001;28;20061;-68
2023/08/02 04:18:42;;;;;;;0.25;0.20;;;;;;;;;;5013550;28;20034;-68
2023/08/02 04:21:07;;;;;;;4.15;0.43;;;;;;;;;;5015517;28;20125;-68
2023/08/02 04:23:33;;;;;;;2.08;0.30;;;;;;;;;;5013348;28;20438;-68
2023/08/02 04:25:58;;;;;;;5.80;0.52;;;;;;;;;;5013877;28;20044;-69
2023/08/02 04:28:23;;;;;;;1.80;0.40;;;;;;;;;;5013408;28;20061;-68
2023/08/02 04:30:52;;;;;;;0.70;0.30;;;;;;;;;;5017851;28;20049;-68
2023/08/02 04:33:18;;;;;;;1.15;0.32;;;;;;;;;;5011980;28;20022;-68
2023/08/02 04:35:43;;;;;;;3.45;0.70;;;;;;;;;;5022401;28;20561;-68
2023/08/02 04:38:08;;;;;;;3.60;1.08;;;;;;;;;;5013228;28;20463;-68
2023/08/02 04:40:38;;;;;;;7.03;0.70;;;;;;;;;;5021673;28;20527;-68
2023/08/02 04:43:03;;;;;;;2.92;0.80;;;;;;;;;;5013943;28;20494;-69
2023/08/02 04:45:29;;;;;;;2.17;0.60;;;;;;;;;;5019323;28;20034;-68
2023/08/02 04:47:54;;;;;;;2.33;0.60;;;;;;;;;;5013292;28;20429;-68
2023/08/02 04:50:20;;;;;;;1.30;0.50;;;;;;;;;;5014053;28;20038;-68
2023/08/02 04:52:45;;;;;;;5.50;0.88;;;;;;;;;;5015693;28;20045;-68
2023/08/02 04:55:10;;;;;;;2.85;0.70;;;;;;;;;;5017696;28;20038;-68
2023/08/02 04:57:36;;;;;;;7.13;0.90;;;;;;;;;;5015866;28;20042;-68
2023/08/02 05:00:01;;;;;;;6.10;0.90;;;;;;;;;;5018397;28;20040;-69
2023/08/02 05:02:33;;;;;;;5.97;1.00;;;;;;;;;;5018928;28;20053;-68
2023/08/02 05:04:58;;;;;;;5.82;1.13;;;;;;;;;;5017333;28;20045;-69
2023/08/02 05:07:24;;;;;;;2.13;0.80;;;;;;;;;;5017020;28;20398;-68
2023/08/02 05:09:49;;;;;;;9.43;1.92;;;;;;;;;;5020108;28;20401;-68
2023/08/02 05:12:14;;;;;;;6.28;1.05;;;;;;;;;;5019275;28;20048;-68
2023/08/02 05:14:40;;;;;;;7.95;0.95;;;;;;;;;;5021539;28;20037;-68
2023/08/02 05:17:07;;;;;;;5.60;1.20;;;;;;;;;;5016593;28;20066;-68
2023/08/02 05:19:33;;;;;;;6.82;1.13;;;;;;;;;;5017508;28;20038;-69
2023/08/02 05:21:58;;;;;;;13.30;1.10;;;;;;;;;;5021106;28;20049;-68
2023/08/02 05:24:24;;;;;;;7.97;1.10;;;;;;;;;;5016537;28;20057;-69
2023/08/02 05:26:49;;;;;;;9.80;1.40;;;;;;;;;;5023908;28;20073;-68
2023/08/02 05:29:14;;;;;;;10.50;1.38;;;;;;;;;;5013707;28;20041;-68
2023/08/02 05:31:40;;;;;;;5.30;1.00;;;;;;;;;;5022442;28;20042;-68
2023/08/02 05:34:05;;;;;;;7.65;1.50;;;;;;;;;;5017816;28;20034;-68
2023/08/02 05:36:31;;;;;;;4.25;1.10;;;;;;;;;;5018454;28;20062;-69
2023/08/02 05:38:56;;;;;;;6.43;1.17;;;;;;;;;;5016278;28;20064;-69
2023/08/02 05:41:21;;;;;;;5.82;1.60;;;;;;;;;;5019310;28;20096;-69
2023/08/02 05:43:46;;;;;;;8.77;1.33;;;;;;;;;;5017742;28;20068;-68
2023/08/02 05:46:12;;;;;;;4.53;0.90;;;;;;;;;;5014035;28;20084;-68
2023/08/02 05:48:37;;;;;;;6.00;1.10;;;;;;;;;;5016146;28;20058;-68
2023/08/02 05:51:02;;;;;;;4.05;1.10;;;;;;;;;;5025354;28;20073;-68
2023/08/02 05:53:28;;;;;;;6.38;1.10;;;;;;;;;;5016157;28;20041;-69
2023/08/02 05:55:55;;;;;;;7.53;1.27;;;;;;;;;;5016913;28;20041;-69
2023/08/02 05:58:20;;;;;;;7.25;1.13;;;;;;;;;;5015752;28;20489;-68
2023/08/02 06:00:46;;;;;;;11.70;1.35;;;;;;;;;;5019690;28;20065;-68
2023/08/02 06:03:11;;;;;;;8.48;1.20;;;;;;;;;;5014870;28;20030;-68
2023/08/02 06:05:36;;;;;;;7.97;1.33;;;;;;;;;;5016369;28;20038;-68
2023/08/02 06:08:02;;;;;;;5.38;1.30;;;;;;;;;;5015718;28;20036;-69
2023/08/02 06:10:27;;;;;;;5.00;1.20;;;;;;;;;;5022708;28;20033;-68
2023/08/02 06:12:52;;;;;;;6.18;1.30;;;;;;;;;;5016409;28;20030;-70
2023/08/02 06:15:18;;;;;;;6.80;1.48;;;;;;;;;;5025637;28;20444;-69
2023/08/02 06:17:43;;;;;;;8.63;1.20;;;;;;;;;;5015561;28;20045;-69
2023/08/02 06:20:09;;;;;;;4.80;1.25;;;;;;;;;;5019173;28;20061;-69
2023/08/02 06:22:34;;;;;;;4.88;1.10;;;;;;;;;;5015693;28;20022;-69
2023/08/02 06:25:00;;;;;;;5.00;1.27;;;;;;;;;;5015053;28;20068;-69
2023/08/02 06:27:25;;;;;;;2.72;1.00;;;;;;;;;;5015502;28;20478;-69
2023/08/02 06:29:50;;;;;;;5.78;1.20;;;;;;;;;;5015672;28;20443;-69
2023/08/02 06:32:16;;;;;;;6.30;1.40;;;;;;;;;;5023336;28;20505;-69
2023/08/02 06:34:41;;;;;;;8.00;1.25;;;;;;;;;;5015199;28;20504;-69
2023/08/02 06:37:06;;;;;;;4.47;1.10;;;;;;;;;;5015222;28;20386;-69
2023/08/02 06:39:33;;;;;;;8.70;1.50;;;;;;;;;;5015591;28;20509;-70
2023/08/02 06:41:58;;;;;;;4.13;1.08;;;;;;;;;;5018043;28;20046;-69
2023/08/02 06:44:23;;;;;;;6.10;1.55;;;;;;;;;;5017694;28;20037;-70
2023/08/02 06:46:49;;;;;;;4.85;1.35;;;;;;;;;;5022775;28;20045;-69
2023/08/02 06:49:14;;;;;;;5.97;1.13;;;;;;;;;;5014943;28;20041;-70
2023/08/02 06:51:40;;;;;;;4.93;1.40;;;;;;;;;;5014993;28;20045;-70
2023/08/02 06:54:05;;;;;;;6.30;1.58;;;;;;;;;;5014768;28;20066;-70
2023/08/02 06:56:30;;;;;;;3.20;1.23;;;;;;;;;;5014833;28;20390;-70
2023/08/02 06:58:56;;;;;;;6.90;1.60;;;;;;;;;;5014853;28;20080;-70
2023/08/02 07:01:22;;;;;;;6.78;1.58;;;;;;;;;;5014329;28;20046;-70
2023/08/02 07:03:48;;;;;;;5.82;1.48;;;;;;;;;;5014293;28;20042;-69
2023/08/02 07:06:15;;;;;;;7.00;1.67;;;;;;;;;;5015669;28;20034;-69
2023/08/02 07:08:41;;;;;;;11.68;1.95;;;;;;;;;;5013316;28;20088;-69
2023/08/02 07:11:07;;;;;;;8.82;1.40;;;;;;;;;;5016854;28;20037;-69
2023/08/02 07:13:33;;;;;;;7.53;1.90;;;;;;;;;;5019201;28;20113;-69
2023/08/02 07:15:59;;;;;;;8.15;1.40;;;;;;;;;;5014234;28;20042;-69
2023/08/02 07:18:25;;;;;;;5.70;1.02;;;;;;;;;;5007779;28;20120;-69
2023/08/02 07:20:50;;;;;;;10.48;1.92;;;;;;;;;;5014362;28;20453;-69
2023/08/02 07:23:15;;;;;;;5.22;1.20;;;;;;;;;;5014040;28;20084;-69
2023/08/02 07:25:41;;;;;;;8.13;1.30;;;;;;;;;;5013255;28;20034;-68
2023/08/02 07:28:06;;;;;;;8.35;1.23;;;;;;;;;;5014270;28;20034;-69
2023/08/02 07:30:32;;;;;;;7.40;1.08;;;;;;;;;;5013961;28;20371;-68
2023/08/02 07:32:57;;;;;;;7.03;1.27;;;;;;;;;;5008079;28;20092;-69
2023/08/02 07:35:23;;;;;;;10.55;1.38;;;;;;;;;;5012166;28;20049;-69
2023/08/02 07:37:48;;;;;;;9.13;1.65;;;;;;;;;;5009757;28;20037;-69
2023/08/02 07:40:13;;;;;;;8.18;1.73;;;;;;;;;;5006773;28;20034;-70
2023/08/02 07:42:39;;;;;;;4.53;1.20;;;;;;;;;;5010769;28;20030;-69
2023/08/02 07:45:07;;;;;;;11.60;1.27;;;;;;;;;;5013355;28;20569;-69
2023/08/02 07:47:33;;;;;;;8.48;1.63;;;;;;;;;;5012338;28;20053;-68
2023/08/02 07:49:58;;;;;;;4.50;1.08;;;;;;;;;;5008588;28;20132;-69
2023/08/02 07:52:24;;;;;;;6.43;1.02;;;;;;;;;;5014160;28;20790;-69
2023/08/02 07:54:51;;;;;;;8.77;1.83;;;;;;;;;;5013811;28;20556;-68
2023/08/02 07:57:17;;;;;;;6.38;1.40;;;;;;;;;;5022908;28;20473;-69
2023/08/02 07:59:42;;;;;;;10.93;1.70;;;;;;;;;;4999274;28;20038;-69
2023/08/02 08:02:07;;;;;;;10.60;1.77;;;;;;;;;;5008741;28;20045;-68
2023/08/02 08:04:33;;;;;;;12.77;1.70;;;;;;;;;;5007561;28;20037;-69
2023/08/02 08:06:58;;;;;;;11.90;1.30;;;;;;;;;;5007955;28;20406;-69
2023/08/02 08:09:24;;;;;;;9.35;1.75;;;;;;;;;;4990154;28;20535;-69
2023/08/02 08:11:50;;;;;;;10.45;1.90;;;;;;;;;;5008482;28;20516;-69
2023/08/02 08:14:15;;;;;;;16.20;1.80;;;;;;;;;;5008529;28;20060;-69
2023/08/02 08:16:40;;;;;;;12.25;1.80;;;;;;;;;;5009781;28;20034;-69
2023/08/02 08:19:06;;;;;;;8.88;1.58;;;;;;;;;;5009554;28;20478;-69
2023/08/02 08:21:31;;;;;;;13.35;1.75;;;;;;;;;;5013347;28;20430;-69
2023/08/02 08:23:56;;;;;;;7.40;1.50;;;;;;;;;;5010244;28;20099;-69
2023/08/02 08:26:22;;;;;;;10.15;1.67;;;;;;;;;;5009135;28;20113;-69
2023/08/02 08:28:48;;;;;;;12.15;1.75;;;;;;;;;;5009496;28;20069;-68
2023/08/02 08:31:13;;;;;;;14.57;1.52;;;;;;;;;;5008632;28;20037;-68
2023/08/02 08:33:38;;;;;;;10.18;1.60;;;;;;;;;;5009495;28;20057;-69
2023/08/02 08:36:04;;;;;;;9.27;1.45;;;;;;;;;;5010189;28;20053;-68
2023/08/02 08:38:30;;;;;;;6.43;1.13;;;;;;;;;;5009479;28;20030;-68
2023/08/02 08:40:56;;;;;;;8.05;1.48;;;;;;;;;;5002280;28;20041;-69
2023/08/02 08:43:26;;;;;;;7.07;1.60;;;;;;;;;;5007650;28;20084;-68
2023/08/02 08:45:52;;;;;;;8.23;1.30;;;;;;;;;;5008350;28;20108;-69
2023/08/02 08:48:17;;;;;;;7.53;1.70;;;;;;;;;;5008153;28;20546;-69
2023/08/02 08:50:45;;;;;;;5.78;1.27;;;;;;;;;;5003598;28;20866;-70
2023/08/02 08:53:17;;;;;;;9.65;1.30;;;;;;;;;;5004283;28;20042;-68
2023/08/02 08:55:42;;;;;;;6.70;1.58;;;;;;;;;;5007303;28;20030;-69
2023/08/02 08:58:08;;;;;;;6.82;1.65;;;;;;;;;;5007696;28;20042;-69
2023/08/02 09:00:34;;;;;;;7.25;1.70;;;;;;;;;;5006934;28;21338;-69
2023/08/02 09:03:00;;;;;;;8.80;1.88;;;;;;;;;;5008614;28;20112;-69
2023/08/02 09:05:28;;;;;;;8.48;1.52;;;;;;;;;;5009269;28;20049;-70
2023/08/02 09:07:58;;;;;;;8.65;1.50;;;;;;;;;;5008483;28;20069;-69
2023/08/02 09:10:23;;;;;;;16.27;1.90;;;;;;;;;;5006571;28;20430;-69
